Time;durP1;ratioP1;P1;durP2;ratioP2;P2;SDS_P1;SDS_P2;PMS_P1;PMS_P2;Temp;Humidity;BMP_temperature;BMP_pressure;BME280_temperature;BME280_humidity;BME280_pressure;Samples;Min_cycle;Max_cycle;Signal;HPM_P1;HPM_P2
2020/12/05 00:01:24;;;;;;;49.33;26.02;;;1.40;99.90;;;;;;5121104;27;20038;-74
2020/12/05 00:03:50;;;;;;;47.97;26.35;;;1.50;99.90;;;;;;5121556;27;20038;-75
2020/12/05 00:06:22;;;;;;;46.05;24.85;;;1.40;99.90;;;;;;5124003;27;20102;-73
2020/12/05 00:08:51;;;;;;;47.03;24.50;;;1.40;99.90;;;;;;5127175;27;20481;-75
2020/12/05 00:11:27;;;;;;;50.47;25.85;;;1.50;99.90;;;;;;5121296;27;20072;-74
2020/12/05 00:13:54;;;;;;;48.30;25.45;;;1.50;99.90;;;;;;5122190;27;20449;-74
2020/12/05 00:16:19;;;;;;;59.08;28.55;;;1.50;99.90;;;;;;5124567;27;20035;-73
2020/12/05 00:18:46;;;;;;;49.92;27.00;;;1.60;99.90;;;;;;5124297;27;20537;-74
2020/12/05 00:21:16;;;;;;;47.28;24.30;;;1.70;99.90;;;;;;5113213;27;20091;-73
2020/12/05 00:23:41;;;;;;;46.92;25.33;;;1.70;99.90;;;;;;5119480;27;20535;-73
2020/12/05 00:26:07;;;;;;;50.15;25.33;;;1.60;99.90;;;;;;5122781;27;20123;-73
2020/12/05 00:28:33;;;;;;;46.28;23.55;;;1.70;99.90;;;;;;5124783;27;20031;-73
2020/12/05 00:30:58;;;;;;;48.08;25.15;;;1.60;99.90;;;;;;5125708;27;20012;-74
2020/12/05 00:33:24;;;;;;;51.10;24.70;;;1.60;99.90;;;;;;5119735;27;20278;-73
2020/12/05 00:35:49;;;;;;;45.60;24.60;;;1.70;99.90;;;;;;5125638;27;20439;-76
2020/12/05 00:38:15;;;;;;;44.92;24.25;;;1.60;99.90;;;;;;5119188;27;20027;-74
2020/12/05 00:40:41;;;;;;;48.38;23.13;;;1.60;99.90;;;;;;5101095;27;20168;-74
2020/12/05 00:43:06;;;;;;;41.30;22.80;;;1.60;99.90;;;;;;5121241;27;20118;-74
2020/12/05 00:45:32;;;;;;;41.65;23.17;;;1.60;99.90;;;;;;5122320;27;20035;-73
2020/12/05 00:47:58;;;;;;;42.25;22.20;;;1.60;99.90;;;;;;5118964;27;20027;-73
2020/12/05 00:50:24;;;;;;;47.25;24.48;;;1.60;99.90;;;;;;5122032;27;20027;-74
2020/12/05 00:52:49;;;;;;;46.30;23.17;;;1.70;99.90;;;;;;5120905;27;20061;-76
2020/12/05 00:55:15;;;;;;;48.13;24.83;;;1.70;99.90;;;;;;5119063;27;20031;-75
2020/12/05 00:57:41;;;;;;;45.03;23.67;;;1.60;99.90;;;;;;5117690;27;20020;-74
2020/12/05 01:00:07;;;;;;;48.63;24.67;;;1.60;99.90;;;;;;5105380;27;20024;-75
2020/12/05 01:02:33;;;;;;;46.28;24.52;;;1.60;99.90;;;;;;5121750;27;20039;-74
2020/12/05 01:04:59;;;;;;;49.80;25.35;;;1.60;99.90;;;;;;5121191;27;20050;-72
2020/12/05 01:07:25;;;;;;;48.25;25.63;;;1.60;99.90;;;;;;5121259;27;20388;-74
2020/12/05 01:09:52;;;;;;;43.55;24.13;;;1.60;99.90;;;;;;5101856;27;20019;-76
2020/12/05 01:12:18;;;;;;;50.00;25.17;;;1.60;99.90;;;;;;5122844;27;20540;-73
2020/12/05 01:14:43;;;;;;;47.45;24.65;;;1.60;99.90;;;;;;5120966;27;20027;-73
2020/12/05 01:17:10;;;;;;;50.97;25.83;;;1.60;99.90;;;;;;5122278;27;20023;-73
2020/12/05 01:19:35;;;;;;;49.47;24.90;;;1.70;99.90;;;;;;5121008;27;20031;-74
2020/12/05 01:22:01;;;;;;;48.42;25.08;;;1.70;99.90;;;;;;5122830;27;20039;-73
2020/12/05 01:24:27;;;;;;;52.22;26.95;;;1.70;99.90;;;;;;5123237;27;20035;-74
2020/12/05 01:26:53;;;;;;;44.50;24.83;;;1.80;99.90;;;;;;5103593;27;20045;-75
2020/12/05 01:29:18;;;;;;;50.22;24.73;;;1.80;99.90;;;;;;5102253;27;20027;-74
2020/12/05 01:31:48;;;;;;;46.30;23.27;;;1.90;99.90;;;;;;5121715;27;20095;-74
2020/12/05 01:34:14;;;;;;;44.25;24.25;;;1.90;99.90;;;;;;5082343;27;20027;-75
2020/12/05 01:36:44;;;;;;;49.40;25.88;;;1.90;99.90;;;;;;5114516;27;20063;-74
2020/12/05 01:39:10;;;;;;;46.63;24.60;;;1.90;99.90;;;;;;5111116;28;20023;-74
2020/12/05 01:41:36;;;;;;;50.90;25.55;;;2.00;99.90;;;;;;5093621;28;20096;-74
2020/12/05 01:44:02;;;;;;;48.20;26.02;;;2.00;99.90;;;;;;5111538;28;20637;-74
2020/12/05 01:46:40;;;;;;;46.83;25.05;;;2.00;99.90;;;;;;5111628;28;20024;-74
2020/12/05 01:49:07;;;;;;;47.97;25.63;;;2.10;99.90;;;;;;5111689;28;20031;-74
2020/12/05 01:51:36;;;;;;;49.13;26.58;;;2.10;99.90;;;;;;5093796;28;20031;-74
2020/12/05 01:54:02;;;;;;;48.67;26.98;;;2.00;99.90;;;;;;5093334;28;20028;-73
2020/12/05 01:56:28;;;;;;;47.00;25.60;;;2.00;99.90;;;;;;5112061;28;20031;-74
2020/12/05 01:58:54;;;;;;;47.70;24.67;;;2.00;99.90;;;;;;5111236;28;20031;-75
2020/12/05 02:01:22;;;;;;;50.45;27.70;;;2.00;99.90;;;;;;5111448;28;20028;-73
2020/12/05 02:03:55;;;;;;;49.80;25.88;;;1.90;99.90;;;;;;5111844;28;20028;-73
2020/12/05 02:06:52;;;;;;;49.15;25.92;;;1.90;99.90;;;;;;5112937;27;20088;-72
2020/12/05 02:09:21;;;;;;;52.30;26.15;;;1.80;99.90;;;;;;5072657;28;20046;-73
2020/12/05 02:12:07;;;;;;;53.38;27.65;;;1.80;99.90;;;;;;5112270;28;20032;-73
2020/12/05 02:14:36;;;;;;;58.65;30.15;;;1.70;99.90;;;;;;5111628;28;20039;-72
2020/12/05 02:17:06;;;;;;;60.35;30.52;;;1.70;99.90;;;;;;5111278;28;20130;-73
2020/12/05 02:19:52;;;;;;;69.47;33.97;;;1.60;99.90;;;;;;5111690;28;20513;-73
2020/12/05 02:22:40;;;;;;;55.58;29.55;;;1.60;99.90;;;;;;5111396;28;20023;-73
2020/12/05 02:25:06;;;;;;;69.53;31.65;;;1.50;99.90;;;;;;5110718;28;20102;-73
2020/12/05 02:27:36;;;;;;;59.78;28.83;;;1.60;99.90;;;;;;5093747;28;20084;-73
2020/12/05 02:30:03;;;;;;;64.33;30.83;;;1.50;99.90;;;;;;5110442;28;20434;-73
2020/12/05 02:32:29;;;;;;;56.30;28.30;;;1.50;99.90;;;;;;5111908;28;20038;-73
2020/12/05 02:34:54;;;;;;;59.85;29.33;;;1.60;99.90;;;;;;5092948;28;20019;-74
2020/12/05 02:37:24;;;;;;;40.35;22.10;;;1.50;99.90;;;;;;5112090;28;20439;-73
2020/12/05 02:39:50;;;;;;;29.67;16.50;;;1.60;99.90;;;;;;5093386;28;20035;-73
2020/12/05 02:42:16;;;;;;;30.73;17.75;;;1.60;99.90;;;;;;5110782;28;20047;-72
2020/12/05 02:44:52;;;;;;;36.17;18.80;;;1.60;99.90;;;;;;5111469;28;20031;-72
2020/12/05 02:47:19;;;;;;;41.05;21.42;;;1.60;99.90;;;;;;5104358;28;20028;-72
2020/12/05 02:49:45;;;;;;;41.38;22.63;;;1.50;99.90;;;;;;5111833;28;20031;-72
2020/12/05 02:52:11;;;;;;;35.22;21.17;;;1.50;99.90;;;;;;5110412;28;20038;-72
2020/12/05 02:54:37;;;;;;;40.33;22.60;;;1.50;99.90;;;;;;5111406;28;20407;-74
2020/12/05 02:57:03;;;;;;;40.25;22.27;;;1.40;99.90;;;;;;5109175;28;20053;-74
2020/12/05 02:59:30;;;;;;;41.25;22.75;;;1.40;99.90;;;;;;5114980;28;20513;-73
2020/12/05 03:01:56;;;;;;;35.17;21.25;;;1.30;99.90;;;;;;5114956;28;20468;-74
2020/12/05 03:04:22;;;;;;;38.85;22.40;;;1.30;99.90;;;;;;5115627;28;20034;-73
2020/12/05 03:06:48;;;;;;;40.20;22.95;;;1.20;99.90;;;;;;5120790;27;20023;-73
2020/12/05 03:09:14;;;;;;;36.20;20.60;;;1.10;99.90;;;;;;5096184;28;20024;-74
2020/12/05 03:11:42;;;;;;;38.90;22.17;;;1.10;99.90;;;;;;5115578;28;20035;-73
2020/12/05 03:14:08;;;;;;;36.72;21.60;;;1.10;99.90;;;;;;5115034;28;20024;-74
2020/12/05 03:16:33;;;;;;;34.50;20.55;;;1.00;99.90;;;;;;5115167;28;20379;-73
2020/12/05 03:18:59;;;;;;;40.05;21.80;;;1.00;99.90;;;;;;5114837;28;20032;-74
2020/12/05 03:21:25;;;;;;;42.40;23.50;;;1.00;99.90;;;;;;5115029;28;20043;-73
2020/12/05 03:23:51;;;;;;;36.80;21.65;;;1.00;99.90;;;;;;5115312;28;20043;-74
2020/12/05 03:26:16;;;;;;;39.72;22.98;;;1.00;99.90;;;;;;5113903;28;20027;-73
2020/12/05 03:28:42;;;;;;;37.92;21.35;;;1.00;99.90;;;;;;5096527;28;20051;-73
2020/12/05 03:31:14;;;;;;;46.35;24.52;;;0.90;99.90;;;;;;5096035;28;20027;-74
2020/12/05 03:33:41;;;;;;;44.78;22.92;;;0.90;99.90;;;;;;5115067;28;20663;-74
2020/12/05 03:36:07;;;;;;;43.92;23.63;;;0.90;99.90;;;;;;5113764;28;20464;-75
2020/12/05 03:38:33;;;;;;;38.40;21.48;;;0.90;99.90;;;;;;5114549;28;20030;-74
2020/12/05 03:40:58;;;;;;;37.83;22.10;;;0.90;99.90;;;;;;5113740;28;20038;-74
2020/12/05 03:43:24;;;;;;;32.88;18.58;;;0.90;99.90;;;;;;5114664;28;20115;-73
2020/12/05 03:45:49;;;;;;;31.85;19.13;;;0.80;99.90;;;;;;5096349;28;20028;-74
2020/12/05 03:48:15;;;;;;;39.95;22.38;;;0.80;99.90;;;;;;5114058;28;20016;-76
2020/12/05 03:50:41;;;;;;;39.80;22.30;;;0.80;99.90;;;;;;5114934;28;20077;-73
2020/12/05 03:53:07;;;;;;;39.95;22.25;;;0.80;99.90;;;;;;5114343;28;20043;-73
2020/12/05 03:55:32;;;;;;;42.35;22.42;;;0.80;99.90;;;;;;5095942;28;20032;-74
2020/12/05 03:58:01;;;;;;;44.35;22.58;;;0.80;99.90;;;;;;5113573;28;20036;-76
2020/12/05 04:00:27;;;;;;;42.55;22.83;;;0.80;99.90;;;;;;5113831;28;20059;-74
2020/12/05 04:02:53;;;;;;;43.97;22.50;;;0.80;99.90;;;;;;5114493;28;20039;-73
2020/12/05 04:05:20;;;;;;;42.75;22.33;;;0.80;99.90;;;;;;5094744;28;20031;-72
2020/12/05 04:07:45;;;;;;;43.58;23.77;;;0.70;99.90;;;;;;5114638;27;20035;-73
2020/12/05 04:10:11;;;;;;;43.20;22.27;;;0.70;99.90;;;;;;5112421;28;20376;-73
2020/12/05 04:12:37;;;;;;;47.15;24.85;;;0.80;99.90;;;;;;5114181;28;20482;-73
2020/12/05 04:15:03;;;;;;;49.13;23.23;;;0.70;99.90;;;;;;5095052;28;20536;-72
2020/12/05 04:17:28;;;;;;;47.13;24.27;;;0.80;99.90;;;;;;5114106;28;20028;-72
2020/12/05 04:19:54;;;;;;;42.33;22.42;;;0.80;99.90;;;;;;5116542;27;20145;-72
2020/12/05 04:22:20;;;;;;;46.53;23.92;;;0.80;99.90;;;;;;5121162;27;20353;-72
2020/12/05 04:24:46;;;;;;;42.28;22.88;;;0.80;99.90;;;;;;5113690;28;20511;-72
2020/12/05 04:27:12;;;;;;;51.25;26.00;;;0.80;99.90;;;;;;5112961;28;20073;-72
2020/12/05 04:29:37;;;;;;;44.40;22.75;;;0.90;99.90;;;;;;5113781;28;20031;-73
2020/12/05 04:32:03;;;;;;;51.63;26.52;;;0.90;99.90;;;;;;5112581;28;20106;-72
2020/12/05 04:34:29;;;;;;;42.83;22.58;;;0.90;99.90;;;;;;5113503;28;20040;-71
2020/12/05 04:36:54;;;;;;;42.30;22.85;;;1.00;99.90;;;;;;5113532;28;20110;-71
2020/12/05 04:39:20;;;;;;;37.33;21.05;;;1.00;99.90;;;;;;5113048;28;20028;-72
2020/12/05 04:41:46;;;;;;;37.13;20.48;;;1.10;99.90;;;;;;5112616;28;20060;-71
2020/12/05 04:44:12;;;;;;;35.03;20.33;;;1.10;99.90;;;;;;5112535;28;20349;-72
2020/12/05 04:46:37;;;;;;;37.83;21.77;;;1.10;99.90;;;;;;5113210;28;20438;-72
2020/12/05 04:49:04;;;;;;;44.97;24.80;;;1.10;99.90;;;;;;5112777;28;20024;-71
2020/12/05 04:51:38;;;;;;;41.55;23.17;;;1.10;99.90;;;;;;5113712;28;20384;-72
2020/12/05 04:54:05;;;;;;;45.45;23.08;;;1.10;99.90;;;;;;5105193;28;20364;-72
2020/12/05 04:56:39;;;;;;;39.67;21.90;;;1.00;99.90;;;;;;5112652;28;20034;-72
2020/12/05 04:59:09;;;;;;;38.22;21.70;;;1.00;99.90;;;;;;5112351;28;20110;-71
2020/12/05 05:01:38;;;;;;;45.78;23.85;;;1.00;99.90;;;;;;5113118;28;20024;-72
2020/12/05 05:04:05;;;;;;;50.87;25.73;;;0.90;99.90;;;;;;5112410;28;20046;-72
2020/12/05 05:06:32;;;;;;;44.88;23.63;;;1.00;99.90;;;;;;5116412;27;20072;-72
2020/12/05 05:08:58;;;;;;;42.95;24.13;;;1.00;99.90;;;;;;5113068;28;20071;-74
2020/12/05 05:11:28;;;;;;;40.63;22.60;;;0.90;99.90;;;;;;5112394;28;20030;-73
2020/12/05 05:14:00;;;;;;;;;;;0.90;99.90;;;;;;5113381;28;20035;-73
2020/12/05 05:16:28;;;;;;;39.55;21.52;;;0.90;99.90;;;;;;5094488;28;19915;-72
2020/12/05 05:19:14;;;;;;;38.78;21.92;;;0.90;99.90;;;;;;5112825;28;20035;-73
2020/12/05 05:21:41;;;;;;;37.22;20.30;;;0.90;99.90;;;;;;5110924;28;20040;-72
2020/12/05 05:24:28;;;;;;;41.72;21.73;;;0.90;99.90;;;;;;5123331;27;20031;-73
2020/12/05 05:27:03;;;;;;;42.03;20.98;;;0.90;99.90;;;;;;5097331;28;20031;-73
2020/12/05 05:29:42;;;;;;;39.78;21.58;;;1.00;99.90;;;;;;5112765;28;20353;-72
2020/12/05 05:32:13;;;;;;;34.13;18.77;;;1.00;99.90;;;;;;5111834;28;20039;-73
2020/12/05 05:34:39;;;;;;;33.33;18.70;;;1.10;99.90;;;;;;5113100;28;20089;-72
2020/12/05 05:37:15;;;;;;;27.98;16.45;;;1.10;99.90;;;;;;5111669;28;20028;-73
2020/12/05 05:39:54;;;;;;;26.25;16.30;;;1.20;99.90;;;;;;5106166;28;20055;-73
2020/12/05 05:42:34;;;;;;;29.08;17.27;;;1.20;99.90;;;;;;5110372;28;20290;-73
2020/12/05 05:45:15;;;;;;;29.08;16.42;;;1.20;99.90;;;;;;5112187;28;20027;-75
2020/12/05 05:47:42;;;;;;;26.88;16.40;;;1.30;99.90;;;;;;5112489;28;20027;-73
2020/12/05 05:50:24;;;;;;;23.42;14.48;;;1.30;99.90;;;;;;5093714;28;20034;-73
2020/12/05 05:53:01;;;;;;;24.30;14.90;;;1.30;99.90;;;;;;5112461;28;20028;-72
2020/12/05 05:55:40;;;;;;;20.40;12.10;;;1.40;99.90;;;;;;5093666;28;20028;-73
2020/12/05 05:58:06;;;;;;;19.80;12.00;;;1.40;99.90;;;;;;5093014;28;20062;-74
2020/12/05 06:00:38;;;;;;;16.35;11.25;;;1.40;99.90;;;;;;5112110;28;20042;-74
2020/12/05 06:03:26;;;;;;;16.88;10.48;;;1.50;99.90;;;;;;5111397;28;20114;-74
2020/12/05 06:05:57;;;;;;;16.17;10.82;;;1.50;99.90;;;;;;5111573;28;20063;-73
2020/12/05 06:08:28;;;;;;;17.23;10.25;;;1.60;99.90;;;;;;5111151;28;20952;-73
2020/12/05 06:11:09;;;;;;;16.63;10.60;;;1.60;99.90;;;;;;5093801;28;20478;-73
2020/12/05 06:13:35;;;;;;;15.45;10.27;;;1.60;99.90;;;;;;5111911;28;20432;-73
2020/12/05 06:16:02;;;;;;;17.42;9.27;;;1.60;99.90;;;;;;5111206;28;20035;-75
2020/12/05 06:18:28;;;;;;;20.13;12.43;;;1.50;99.90;;;;;;5111046;28;20032;-73
2020/12/05 06:20:55;;;;;;;27.92;16.95;;;1.50;99.90;;;;;;5112001;28;20095;-74
2020/12/05 06:23:31;;;;;;;31.23;18.85;;;1.50;99.90;;;;;;5111099;28;20103;-73
2020/12/05 06:26:00;;;;;;;31.65;19.30;;;1.40;99.90;;;;;;5110661;27;20488;-73
2020/12/05 06:28:27;;;;;;;28.52;18.02;;;1.40;99.90;;;;;;5122728;27;20030;-74
2020/12/05 06:30:53;;;;;;;29.42;17.98;;;1.30;99.90;;;;;;5103441;28;20023;-74
2020/12/05 06:33:41;;;;;;;28.02;17.40;;;1.20;99.90;;;;;;5110584;28;20031;-73
2020/12/05 06:36:28;;;;;;;28.38;17.23;;;1.20;99.90;;;;;;5110730;28;20024;-73
2020/12/05 06:39:06;;;;;;;26.73;16.35;;;1.20;99.90;;;;;;5111317;28;20036;-74
2020/12/05 06:41:35;;;;;;;28.65;17.23;;;1.20;99.90;;;;;;5111288;28;20071;-73
2020/12/05 06:44:12;;;;;;;31.13;18.13;;;1.10;99.90;;;;;;5111072;28;20035;-75
2020/12/05 06:46:57;;;;;;;32.75;18.17;;;1.10;99.90;;;;;;5111605;28;20036;-72
2020/12/05 06:49:38;;;;;;;29.52;16.70;;;1.10;99.90;;;;;;5110702;28;20023;-72
2020/12/05 06:52:22;;;;;;;28.67;16.63;;;1.10;99.90;;;;;;5111000;28;20026;-74
2020/12/05 06:54:52;;;;;;;27.45;15.52;;;1.10;99.90;;;;;;5111630;28;20083;-72
2020/12/05 06:57:18;;;;;;;24.48;14.93;;;1.20;99.90;;;;;;5110672;28;20127;-72
2020/12/05 06:59:44;;;;;;;22.83;14.57;;;1.20;99.90;;;;;;5111679;28;20031;-72
2020/12/05 07:02:28;;;;;;;12.30;7.72;;;1.20;99.90;;;;;;5109958;28;20039;-72
2020/12/05 07:05:19;;;;;;;12.60;6.97;;;1.30;99.90;;;;;;5111360;28;20024;-71
2020/12/05 07:07:46;;;;;;;11.20;7.15;;;1.30;99.90;;;;;;5114168;28;20027;-72
2020/12/05 07:10:12;;;;;;;9.18;6.47;;;1.30;99.90;;;;;;5109730;28;20039;-72
2020/12/05 07:12:38;;;;;;;10.02;6.90;;;1.40;99.90;;;;;;5111103;28;20084;-72
2020/12/05 07:15:28;;;;;;;9.10;6.07;;;1.40;99.90;;;;;;5110736;28;20028;-74
2020/12/05 07:17:54;;;;;;;10.93;5.63;;;1.40;99.90;;;;;;5111162;28;20405;-72
2020/12/05 07:20:20;;;;;;;10.27;7.05;;;1.40;99.90;;;;;;5092223;28;20036;-71
2020/12/05 07:22:51;;;;;;;11.68;7.82;;;1.50;99.90;;;;;;5110995;28;20116;-71
2020/12/05 07:25:16;;;;;;;;;;;1.50;99.90;;;;;;5110674;28;20031;-72
2020/12/05 07:27:42;;;;;;;11.80;7.00;;;1.40;99.90;;;;;;5092682;28;20225;-72
2020/12/05 07:30:08;;;;;;;11.40;7.03;;;1.40;99.90;;;;;;5114643;28;20028;-72
2020/12/05 07:32:38;;;;;;;10.23;7.43;;;1.40;99.90;;;;;;5111416;28;20036;-71
2020/12/05 07:35:06;;;;;;;9.90;6.50;;;1.40;99.90;;;;;;5110339;28;20023;-74
2020/12/05 07:37:34;;;;;;;9.85;5.07;;;1.40;99.90;;;;;;5111392;28;20054;-72
2020/12/05 07:40:01;;;;;;;9.40;6.07;;;1.40;99.90;;;;;;5092892;28;20039;-73
2020/12/05 07:42:40;;;;;;;9.35;5.90;;;1.40;99.90;;;;;;5109923;28;20072;-72
2020/12/05 07:45:12;;;;;;;7.28;5.38;;;1.40;99.90;;;;;;5111262;28;20031;-73
2020/12/05 07:47:39;;;;;;;7.72;5.30;;;1.40;99.90;;;;;;5114786;28;20120;-71
2020/12/05 07:50:06;;;;;;;9.43;5.97;;;1.40;99.90;;;;;;5114072;28;20039;-74
2020/12/05 07:52:31;;;;;;;8.05;5.68;;;1.40;99.90;;;;;;5114772;28;20390;-72
2020/12/05 07:55:00;;;;;;;9.68;6.53;;;1.40;99.90;;;;;;5114352;28;20054;-72
2020/12/05 07:57:30;;;;;;;9.63;5.88;;;1.40;99.90;;;;;;5113580;28;20472;-71
2020/12/05 08:00:14;;;;;;;;;;;1.40;99.90;;;;;;5114979;28;20047;-73
2020/12/05 08:02:59;;;;;;;8.32;5.32;;;1.30;99.90;;;;;;5095130;28;20004;-74
2020/12/05 08:05:53;;;;;;;11.38;7.28;;;1.30;99.90;;;;;;5112864;27;20123;-74
2020/12/05 08:08:20;;;;;;;18.00;10.70;;;1.30;99.90;;;;;;5106879;28;20412;-76
2020/12/05 08:10:46;;;;;;;22.25;12.23;;;1.30;99.90;;;;;;5067526;28;20040;-73
2020/12/05 08:13:22;;;;;;;20.88;12.70;;;1.40;99.90;;;;;;5094212;28;20030;-73
2020/12/05 08:15:58;;;;;;;18.88;11.55;;;1.40;99.90;;;;;;5113282;28;20024;-73
2020/12/05 08:18:26;;;;;;;19.83;12.02;;;1.40;99.90;;;;;;5118972;27;20204;-75
2020/12/05 08:20:53;;;;;;;20.85;12.55;;;1.50;99.90;;;;;;5115573;27;20476;-73
2020/12/05 08:23:22;;;;;;;16.08;10.98;;;1.50;99.90;;;;;;5123105;27;20055;-74
2020/12/05 08:25:51;;;;;;;16.13;11.18;;;1.50;99.90;;;;;;5115947;27;20027;-73
2020/12/05 08:28:20;;;;;;;19.33;11.75;;;1.50;99.90;;;;;;5118563;27;20508;-73
2020/12/05 08:30:47;;;;;;;20.20;11.48;;;1.50;99.90;;;;;;5122700;27;20429;-74
2020/12/05 08:33:14;;;;;;;21.83;12.15;;;1.60;99.90;;;;;;5120376;27;20158;-74
2020/12/05 08:35:44;;;;;;;18.55;10.90;;;1.60;99.90;;;;;;5115093;28;20506;-75
2020/12/05 08:38:14;;;;;;;20.70;10.90;;;1.60;99.90;;;;;;5115958;28;20036;-78
2020/12/05 08:40:40;;;;;;;;;;;1.60;99.90;;;;;;5119493;27;20054;-75
2020/12/05 08:43:06;;;;;;;15.82;10.27;;;1.70;99.90;;;;;;5128018;27;19921;-76
2020/12/05 08:45:37;;;;;;;16.73;10.20;;;1.70;99.90;;;;;;5123100;27;20024;-73
2020/12/05 08:48:13;;;;;;;15.43;10.45;;;1.80;99.90;;;;;;5120975;27;20036;-75
2020/12/05 08:50:39;;;;;;;21.80;10.82;;;1.80;99.90;;;;;;5118055;27;20020;-74
2020/12/05 08:53:05;;;;;;;15.10;9.98;;;1.90;99.90;;;;;;5122760;27;20391;-76
2020/12/05 08:55:31;;;;;;;16.75;10.57;;;1.90;99.90;;;;;;5118682;27;20046;-74
2020/12/05 08:57:59;;;;;;;16.83;10.45;;;1.90;99.90;;;;;;5120404;27;20019;-75
2020/12/05 09:00:26;;;;;;;15.52;9.43;;;1.90;99.90;;;;;;5119640;27;20023;-74
2020/12/05 09:02:51;;;;;;;15.23;10.65;;;2.00;99.90;;;;;;5115861;27;20408;-74
2020/12/05 09:05:17;;;;;;;18.15;11.13;;;2.00;99.90;;;;;;5121729;27;20030;-74
2020/12/05 09:07:59;;;;;;;15.82;10.27;;;2.10;99.90;;;;;;5119256;27;20494;-74
2020/12/05 09:10:26;;;;;;;15.05;9.18;;;2.10;99.90;;;;;;5116938;27;20067;-72
2020/12/05 09:12:53;;;;;;;13.15;8.55;;;2.20;99.90;;;;;;5113136;28;20476;-73
2020/12/05 09:15:19;;;;;;;11.82;6.85;;;2.20;99.90;;;;;;5112721;28;20028;-72
2020/12/05 09:17:45;;;;;;;10.40;6.28;;;2.20;99.90;;;;;;5112771;28;20056;-75
2020/12/05 09:20:15;;;;;;;11.43;5.75;;;2.30;99.90;;;;;;5112485;28;20059;-74
2020/12/05 09:22:50;;;;;;;9.23;6.25;;;2.30;99.90;;;;;;5112925;28;20042;-73
2020/12/05 09:25:38;;;;;;;9.70;7.07;;;2.30;99.90;;;;;;5112263;28;20024;-72
2020/12/05 09:28:12;;;;;;;12.68;8.25;;;2.40;99.90;;;;;;5113037;28;20421;-72
2020/12/05 09:30:38;;;;;;;15.15;8.25;;;2.40;99.90;;;;;;5112932;28;20038;-73
2020/12/05 09:33:11;;;;;;;17.25;9.95;;;2.40;99.90;;;;;;5112461;28;20024;-71
2020/12/05 09:35:37;;;;;;;14.50;9.82;;;2.40;99.90;;;;;;5116461;27;20016;-72
2020/12/05 09:38:03;;;;;;;13.70;9.35;;;2.50;99.90;;;;;;5122491;27;20024;-69
2020/12/05 09:40:30;;;;;;;16.10;8.77;;;2.50;99.90;;;;;;5111931;28;20031;-73
2020/12/05 09:42:57;;;;;;;10.57;8.38;;;2.50;99.90;;;;;;5113108;28;20055;-74
2020/12/05 09:45:23;;;;;;;13.65;8.15;;;2.60;99.90;;;;;;5111851;28;20032;-73
2020/12/05 09:47:49;;;;;;;12.50;8.30;;;2.60;99.90;;;;;;5112626;28;20110;-74
2020/12/05 09:50:15;;;;;;;11.90;7.43;;;2.60;99.90;;;;;;5111016;28;20106;-73
2020/12/05 09:52:42;;;;;;;14.73;8.57;;;2.60;99.90;;;;;;5108442;28;20031;-73
2020/12/05 09:55:08;;;;;;;13.57;9.85;;;2.60;99.90;;;;;;5107124;28;20110;-74
2020/12/05 09:57:33;;;;;;;15.55;10.15;;;2.60;99.90;;;;;;5111673;28;20120;-72
2020/12/05 10:00:00;;;;;;;12.23;9.40;;;2.60;99.90;;;;;;5108878;28;20048;-74
2020/12/05 10:02:26;;;;;;;15.45;10.52;;;2.60;99.90;;;;;;5108422;28;20055;-72
2020/12/05 10:04:51;;;;;;;12.25;9.07;;;2.60;99.90;;;;;;5113065;28;20078;-72
2020/12/05 10:07:17;;;;;;;16.20;10.63;;;2.70;99.90;;;;;;5116517;27;20035;-73
2020/12/05 10:09:43;;;;;;;19.52;10.35;;;2.70;99.90;;;;;;5106074;28;20028;-70
2020/12/05 10:12:09;;;;;;;13.70;10.57;;;2.80;99.90;;;;;;5112852;28;20034;-71
2020/12/05 10:14:34;;;;;;;13.85;10.57;;;2.70;99.90;;;;;;5111547;28;20027;-72
2020/12/05 10:17:00;;;;;;;15.13;11.05;;;2.80;99.90;;;;;;5111467;28;20016;-72
2020/12/05 10:19:26;;;;;;;16.25;11.70;;;2.70;99.90;;;;;;5111600;28;20027;-71
2020/12/05 10:21:53;;;;;;;13.98;10.82;;;2.70;99.90;;;;;;5111047;28;20030;-71
2020/12/05 10:24:19;;;;;;;15.13;10.93;;;2.70;99.90;;;;;;5110798;28;20028;-72
2020/12/05 10:26:53;;;;;;;15.90;10.52;;;2.70;99.90;;;;;;5111774;28;20023;-72
2020/12/05 10:29:23;;;;;;;16.48;11.43;;;2.70;99.90;;;;;;5093145;28;20011;-71
2020/12/05 10:31:51;;;;;;;15.27;10.30;;;2.80;99.90;;;;;;5111559;28;20028;-70
2020/12/05 10:34:17;;;;;;;15.40;11.38;;;2.80;99.90;;;;;;5111161;28;20020;-72
2020/12/05 10:36:44;;;;;;;14.02;10.27;;;2.80;99.90;;;;;;5110471;28;20020;-71
2020/12/05 10:39:10;;;;;;;16.98;10.45;;;2.80;99.90;;;;;;5095148;28;20460;-71
2020/12/05 10:41:37;;;;;;;16.52;11.25;;;2.80;99.90;;;;;;5110207;28;20559;-71
2020/12/05 10:44:04;;;;;;;24.40;14.95;;;2.80;99.90;;;;;;5110912;28;20110;-71
2020/12/05 10:46:29;;;;;;;19.58;14.15;;;2.80;99.90;;;;;;5110169;27;20131;-71
2020/12/05 10:48:55;;;;;;;15.30;11.50;;;2.80;99.90;;;;;;5110994;28;20507;-71
2020/12/05 10:51:21;;;;;;;16.70;12.50;;;2.80;99.90;;;;;;5109252;28;20044;-70
2020/12/05 10:53:47;;;;;;;17.95;12.48;;;2.70;99.90;;;;;;5111515;28;20019;-70
2020/12/05 10:56:12;;;;;;;22.88;16.50;;;2.70;99.90;;;;;;5111438;28;20380;-70
2020/12/05 10:58:38;;;;;;;39.63;24.90;;;2.70;99.90;;;;;;5110526;28;20031;-71
2020/12/05 11:01:04;;;;;;;19.10;13.23;;;2.60;99.90;;;;;;5111552;28;20028;-71
2020/12/05 11:03:30;;;;;;;19.17;12.73;;;2.70;99.90;;;;;;5109376;28;20073;-71
2020/12/05 11:05:56;;;;;;;17.25;11.80;;;2.60;99.90;;;;;;5104988;28;20047;-71
2020/12/05 11:08:22;;;;;;;17.70;12.13;;;2.60;99.90;;;;;;5110368;28;20019;-72
2020/12/05 11:10:47;;;;;;;15.88;11.18;;;2.60;99.90;;;;;;5110814;28;20337;-71
2020/12/05 11:13:13;;;;;;;15.80;11.02;;;2.60;99.90;;;;;;5111234;28;20472;-71
2020/12/05 11:15:39;;;;;;;17.23;11.48;;;2.60;99.90;;;;;;5110666;28;20482;-72
2020/12/05 11:18:05;;;;;;;12.30;9.75;;;2.60;99.90;;;;;;5111213;28;20072;-71
2020/12/05 11:20:31;;;;;;;14.32;10.23;;;2.70;99.90;;;;;;5114230;28;20031;-72
2020/12/05 11:22:57;;;;;;;14.48;10.90;;;2.80;99.90;;;;;;5114650;28;20369;-71
2020/12/05 11:25:22;;;;;;;14.88;10.00;;;2.80;99.90;;;;;;5114219;28;20024;-72
2020/12/05 11:27:48;;;;;;;16.25;11.30;;;2.90;99.90;;;;;;5114691;28;20511;-71
2020/12/05 11:30:14;;;;;;;16.52;11.15;;;2.90;99.90;;;;;;5096936;28;20059;-69
2020/12/05 11:32:40;;;;;;;16.08;11.10;;;3.00;99.90;;;;;;5114234;28;20043;-70
2020/12/05 11:35:06;;;;;;;18.63;11.13;;;3.00;99.90;;;;;;5115208;28;20028;-71
2020/12/05 11:37:33;;;;;;;13.65;10.55;;;3.00;99.90;;;;;;5114904;28;20038;-70
2020/12/05 11:39:58;;;;;;;16.83;11.27;;;3.10;99.90;;;;;;5114202;28;20353;-71
2020/12/05 11:42:27;;;;;;;16.23;12.38;;;3.10;99.90;;;;;;5121373;27;20077;-73
2020/12/05 11:44:54;;;;;;;17.95;12.15;;;3.10;99.90;;;;;;5120838;27;20119;-71
2020/12/05 11:47:19;;;;;;;19.40;11.88;;;3.20;99.90;;;;;;5114559;28;20080;-72
2020/12/05 11:49:45;;;;;;;17.42;11.25;;;3.20;99.90;;;;;;5109698;28;20039;-72
2020/12/05 11:52:11;;;;;;;14.70;10.93;;;3.20;99.90;;;;;;5113737;28;20215;-72
2020/12/05 11:54:36;;;;;;;16.25;11.60;;;3.30;99.90;;;;;;5113785;28;20035;-72
2020/12/05 11:57:02;;;;;;;14.80;11.43;;;3.30;99.90;;;;;;5114407;28;20043;-71
2020/12/05 11:59:28;;;;;;;17.77;12.30;;;3.30;99.90;;;;;;5113957;28;20483;-70
2020/12/05 12:01:53;;;;;;;15.63;11.18;;;3.30;99.90;;;;;;5114600;28;20039;-70
2020/12/05 12:04:19;;;;;;;17.83;12.52;;;3.30;99.90;;;;;;5113320;28;20040;-72
2020/12/05 12:06:45;;;;;;;12.32;9.05;;;3.40;99.90;;;;;;5102149;28;20367;-71
2020/12/05 12:09:11;;;;;;;12.73;9.15;;;3.30;99.90;;;;;;5115253;28;20027;-72
2020/12/05 12:11:36;;;;;;;14.90;8.95;;;3.30;99.90;;;;;;5094979;27;20023;-72
2020/12/05 12:14:02;;;;;;;13.27;8.43;;;3.40;99.90;;;;;;5093288;28;20048;-71
2020/12/05 12:16:28;;;;;;;13.23;7.97;;;3.40;99.90;;;;;;5112428;28;20055;-70
2020/12/05 12:18:53;;;;;;;12.82;8.27;;;3.40;99.90;;;;;;5113885;28;20372;-71
2020/12/05 12:21:26;;;;;;;11.77;8.18;;;3.40;99.90;;;;;;5113035;28;20081;-72
2020/12/05 12:23:52;;;;;;;12.35;8.50;;;3.40;99.90;;;;;;5113553;28;20074;-72
2020/12/05 12:26:18;;;;;;;11.98;7.90;;;3.50;99.90;;;;;;5113225;28;20052;-79
2020/12/05 12:28:44;;;;;;;11.95;7.60;;;3.50;99.90;;;;;;5113740;28;20130;-70
2020/12/05 12:31:10;;;;;;;12.25;7.28;;;3.50;99.90;;;;;;5112964;28;20020;-70
2020/12/05 12:33:38;;;;;;;10.07;7.07;;;3.50;99.90;;;;;;5115423;28;20118;-72
2020/12/05 12:36:03;;;;;;;9.13;7.20;;;3.50;99.90;;;;;;5114029;28;20467;-70
2020/12/05 12:38:29;;;;;;;10.45;7.50;;;3.50;99.90;;;;;;5112488;28;20056;-71
2020/12/05 12:40:56;;;;;;;10.52;7.75;;;3.50;99.90;;;;;;5112756;28;20028;-70
2020/12/05 12:43:22;;;;;;;10.50;7.28;;;3.50;99.90;;;;;;5111968;28;20548;-73
2020/12/05 12:45:48;;;;;;;12.23;8.00;;;3.50;99.90;;;;;;5119582;27;20114;-70
2020/12/05 12:50:48;;;;;;;11.60;7.72;;;3.50;99.90;;;;;;5113791;28;20383;-73